Ripollet, Spain
Current Conditions -  °F | °C
As of 6:00 AM on Thursday 23 Oct 2014 (Local Time) from LEBL Reporting Station
Few Clouds Few Clouds  
Wind Chill: 57°   Ceiling: Unl
Heat Index: 57°   Visibility: 6mi
Dew Point: 46°   Wind: 8mph
Humidity: 67%   Direction: 330°NNW
Pressure: 30.15"   Gusts: NA
Location:  41.5°N, 2.16°E
Report Text: LEBL 230400Z 33007KT 9999 FEW025 14/08 Q1021 NOSIG
Loading
Personal Weather Stations






























Interactive Weather Map
Tropical Storm Tracking
New forecast layout! Learn more

10-Day Weather Forecast

Advertisements
Track Severe Weather on mobile